Portada
METAR-TAF:

METAR-TAF

Aeropuertos :

Angulema, Francia

latitud: 45-43-46N, longitud: 00-13-08E, altitud: 132 m

Observación

El informe se hizo hace 29 minutos, a las 16:30 UTC
Viento 10 kt del norte-noreste, variando entre norte y este-noreste
Temperatura 29°C
Humedad 40%
Presión 1018 hPa
Visibilidad 10 km o más
sin nubes por debajo de 1500 m y sin presencia de cumulonimbus.

METAR: LFBU 151630Z AUTO 03010KT 360V070 CAVOK 29/14 Q1018 NOSIG

Hora: 18:59 (16:59 UTC)

Pronóstico

El informe se hizo hace 5 horas y 59 minutos, a las 11:00 UTC
Pronóstico válido del 15 a las 12 UTC al 16 a las 12 UTC
Viento 5 kt del noreste
Visibilidad 10 km o más
sin nubes por debajo de 1500 m y sin presencia de cumulonimbus.
Evolucionando progresivamente
del 16 a las 10 UTC al 16 a las 12 UTC
Viento 10 kt del oeste-suroeste

TAF: LFBU 151100Z 1512/1612 04005KT CAVOK BECMG 1610/1612 25010KT

Observaciones y pronósticos meteorológicos de más de 4000 aeropuertos (mensajes METAR y TAF).

Los puntos amarillos y rojos representan las estaciones disponibles.

Ponga el ratón en el punto deseado para ver el nombre de la estación.

Haga clic para ver las observaciones y los pronósticos meteorológicos.

Para cambiar el mapa : haga clic en los botones verdes con una cruz de color negro para hacer un zoom, en el botón verde con un guión para alejar o en las flechas verdes para mapas adyacentes.


METAR-TAF: